Main page
METAR-TAF:

METAR-TAF

Airports :

Castres–Mazamet Airport

Castres, France

latitude: 43-33-25N, longitude: 2-17-21E, elevation: 239 m

Current weather observation

The report was made 17 minutes ago, at 22:30 UTC
Wind 11 kt from the East/Southeast
Temperature 11°C
Humidity 82%
Pressure 1018 hPa
Visibility 10 km or more
no clouds below 1500 m and no cumulonimbus

METAR: LFCK 242230Z AUTO 12011KT CAVOK 11/08 Q1018 BECMG 12015G25KT

Time: 23:47 (22:47 UTC)

Forecast

The report was made 5 hours and 47 minutes ago, at 17:00 UTC
Forecast valid from 24 at 18 UTC to 25 at 03 UTC
Wind 15 kt from the East/Southeast with gusts up to 25 kt
Visibility 10 km or more
no clouds below 1500 m and no cumulonimbus

TAF: LFCK 241700Z 2418/2503 12015G25KT CAVOK

Weather observations and forecasts of more than 4000 airports (METAR and TAF reports).

The available stations are represented by yellow and red dots on the map.

Hover mouse over dot to see the name of the station.

Then click to see weather observations and forecasts.

To change the map : click on the green buttons with a black cross to zoom in, on the green button with a dash to zoom out, or on the green arrows for adjacent maps.


METAR-TAF: